Time;durP1;ratioP1;P1;durP2;ratioP2;P2;SDS_P1;SDS_P2;PMS_P1;PMS_P2;Temp;Humidity;BMP_temperature;BMP_pressure;BME280_temperature;BME280_humidity;BME280_pressure;Samples;Min_cycle;Max_cycle;Signal;HPM_P1;HPM_P2
2021/10/30 00:01:00;;;;;;;36.90;21.23;;;;;;;;;;769655;183;921690;-66
2021/10/30 00:03:26;;;;;;;33.63;18.20;;;;;;;;;;768986;183;915339;-66
2021/10/30 00:05:53;;;;;;;31.70;18.03;;;;;;;;;;768125;183;624175;-66
2021/10/30 00:08:18;;;;;;;38.30;22.20;;;;;;;;;;775175;183;628092;-64
2021/10/30 00:10:44;;;;;;;35.47;17.63;;;;;;;;;;764096;183;918968;-65
2021/10/30 00:13:10;;;;;;;38.90;19.53;;;;;;;;;;764747;183;917627;-66
2021/10/30 00:15:35;;;;;;;29.83;17.90;;;;;;;;;;770160;183;921979;-63
2021/10/30 00:18:01;;;;;;;32.10;17.95;;;;;;;;;;752782;186;908622;-65
2021/10/30 00:20:27;;;;;;;31.83;18.40;;;;;;;;;;758354;183;919626;-65
2021/10/30 00:22:53;;;;;;;34.03;17.27;;;;;;;;;;767921;183;614793;-66
2021/10/30 00:25:19;;;;;;;26.73;16.07;;;;;;;;;;764527;183;914489;-65
2021/10/30 00:27:45;;;;;;;28.03;15.93;;;;;;;;;;768051;183;914163;-66
2021/10/30 00:30:10;;;;;;;27.07;16.37;;;;;;;;;;765551;183;913717;-66
2021/10/30 00:32:36;;;;;;;27.57;16.63;;;;;;;;;;768936;183;918778;-65
2021/10/30 00:35:02;;;;;;;28.60;16.17;;;;;;;;;;763945;183;920284;-63
2021/10/30 00:37:28;;;;;;;29.80;16.45;;;;;;;;;;763751;183;1021519;-65
2021/10/30 00:39:54;;;;;;;26.90;18.70;;;;;;;;;;770333;183;920190;-63
2021/10/30 00:42:20;;;;;;;31.83;20.00;;;;;;;;;;762680;183;919717;-65
2021/10/30 00:44:46;;;;;;;29.43;17.63;;;;;;;;;;766041;183;920289;-63
2021/10/30 00:47:13;;;;;;;30.15;19.42;;;;;;;;;;757680;183;1354213;-64
2021/10/30 00:49:37;;;;;;;32.20;18.13;;;;;;;;;;764417;183;918224;-64
2021/10/30 00:52:03;;;;;;;35.97;18.50;;;;;;;;;;763115;183;919128;-64
2021/10/30 00:54:29;;;;;;;32.90;18.07;;;;;;;;;;762720;183;940442;-65
2021/10/30 00:56:57;;;;;;;33.70;21.43;;;;;;;;;;768351;183;919194;-65
2021/10/30 00:59:21;;;;;;;34.77;19.07;;;;;;;;;;767116;183;918539;-65
2021/10/30 01:01:48;;;;;;;32.67;18.10;;;;;;;;;;763789;183;915636;-66
2021/10/30 01:04:13;;;;;;;36.23;17.57;;;;;;;;;;769834;181;918794;-65
2021/10/30 01:06:39;;;;;;;39.10;18.50;;;;;;;;;;765817;182;919325;-65
2021/10/30 01:09:04;;;;;;;27.17;15.80;;;;;;;;;;766163;182;916927;-65
2021/10/30 01:11:31;;;;;;;36.15;17.17;;;;;;;;;;768788;183;918834;-63
2021/10/30 01:13:57;;;;;;;26.70;17.17;;;;;;;;;;771415;180;919968;-64
2021/10/30 01:16:22;;;;;;;26.40;16.37;;;;;;;;;;764235;183;919828;-65
2021/10/30 01:18:48;;;;;;;28.90;16.67;;;;;;;;;;763276;183;967706;-64
2021/10/30 01:21:14;;;;;;;25.07;14.70;;;;;;;;;;769087;183;917928;-65
2021/10/30 01:23:40;;;;;;;23.03;14.47;;;;;;;;;;761816;183;2043952;-65
2021/10/30 01:26:06;;;;;;;28.17;14.90;;;;;;;;;;766360;183;919893;-63
2021/10/30 01:28:32;;;;;;;22.40;15.70;;;;;;;;;;771301;183;919434;-64
2021/10/30 01:30:58;;;;;;;24.70;16.20;;;;;;;;;;766201;182;919337;-65
2021/10/30 01:33:23;;;;;;;29.30;15.80;;;;;;;;;;766325;183;921692;-65
2021/10/30 01:35:49;;;;;;;23.23;14.73;;;;;;;;;;767252;183;919416;-65
2021/10/30 01:38:15;;;;;;;20.90;14.30;;;;;;;;;;768699;183;919105;-65
2021/10/30 01:40:41;;;;;;;26.00;14.20;;;;;;;;;;770993;183;628632;-65
2021/10/30 01:43:07;;;;;;;23.37;13.50;;;;;;;;;;766697;183;914251;-64
2021/10/30 01:45:33;;;;;;;23.07;15.03;;;;;;;;;;769276;183;921739;-65
2021/10/30 01:47:59;;;;;;;20.30;13.90;;;;;;;;;;764976;183;919497;-65
2021/10/30 01:50:25;;;;;;;22.43;14.00;;;;;;;;;;765140;183;920178;-65
2021/10/30 01:52:50;;;;;;;25.83;13.90;;;;;;;;;;769496;183;919633;-65
2021/10/30 01:55:16;;;;;;;25.80;15.37;;;;;;;;;;762259;183;919186;-65
2021/10/30 01:57:42;;;;;;;25.60;15.20;;;;;;;;;;764619;183;917385;-65
2021/10/30 02:00:08;;;;;;;27.17;16.92;;;;;;;;;;766044;183;923810;-65
2021/10/30 02:02:34;;;;;;;26.43;14.27;;;;;;;;;;764853;183;918326;-65
2021/10/30 02:05:00;;;;;;;18.07;11.67;;;;;;;;;;763502;183;919712;-64
2021/10/30 02:07:26;;;;;;;25.87;15.87;;;;;;;;;;762933;183;919407;-63
2021/10/30 02:09:52;;;;;;;27.43;13.80;;;;;;;;;;769472;183;921354;-65
2021/10/30 02:12:18;;;;;;;24.20;14.50;;;;;;;;;;763373;183;919546;-65
2021/10/30 02:14:43;;;;;;;22.35;14.43;;;;;;;;;;765391;183;920311;-66
2021/10/30 02:17:09;;;;;;;23.77;14.10;;;;;;;;;;770646;182;929489;-66
2021/10/30 02:19:35;;;;;;;25.73;13.20;;;;;;;;;;766964;182;914106;-65
2021/10/30 02:22:01;;;;;;;25.75;16.77;;;;;;;;;;765282;182;916913;-65
2021/10/30 02:24:27;;;;;;;21.10;14.40;;;;;;;;;;772229;183;888287;-65
2021/10/30 02:26:53;;;;;;;27.10;15.70;;;;;;;;;;766469;183;918794;-65
2021/10/30 02:29:18;;;;;;;22.80;13.63;;;;;;;;;;765333;183;918624;-65
2021/10/30 02:31:44;;;;;;;24.70;15.20;;;;;;;;;;764935;183;918723;-64
2021/10/30 02:34:10;;;;;;;43.23;15.10;;;;;;;;;;767767;183;931473;-66
2021/10/30 02:36:36;;;;;;;22.40;15.57;;;;;;;;;;763978;183;918018;-63
2021/10/30 02:39:02;;;;;;;26.07;13.13;;;;;;;;;;763807;183;918312;-64
2021/10/30 02:41:28;;;;;;;18.60;13.63;;;;;;;;;;768952;183;919624;-65
2021/10/30 02:43:53;;;;;;;23.33;13.70;;;;;;;;;;763792;183;919124;-65
2021/10/30 02:46:19;;;;;;;25.12;15.30;;;;;;;;;;767432;183;919153;-66
2021/10/30 02:48:45;;;;;;;24.70;13.53;;;;;;;;;;766369;183;918051;-64
2021/10/30 02:51:11;;;;;;;20.23;13.10;;;;;;;;;;760395;183;919861;-66
2021/10/30 02:53:37;;;;;;;20.70;13.83;;;;;;;;;;765001;183;919310;-66
2021/10/30 02:56:03;;;;;;;25.40;14.20;;;;;;;;;;770285;183;918708;-65
2021/10/30 02:58:29;;;;;;;20.63;13.17;;;;;;;;;;763215;183;919202;-64
2021/10/30 03:00:55;;;;;;;22.60;15.20;;;;;;;;;;765081;183;920062;-64
2021/10/30 03:03:21;;;;;;;23.40;14.50;;;;;;;;;;763254;183;630990;-66
2021/10/30 03:05:47;;;;;;;20.20;13.77;;;;;;;;;;775011;183;627636;-63
2021/10/30 03:08:12;;;;;;;25.07;15.63;;;;;;;;;;765818;183;919244;-63
2021/10/30 03:10:38;;;;;;;26.00;15.73;;;;;;;;;;767283;183;917696;-65
2021/10/30 03:13:04;;;;;;;21.20;15.40;;;;;;;;;;767139;183;918939;-66
2021/10/30 03:15:30;;;;;;;29.00;15.93;;;;;;;;;;761197;183;918311;-65
2021/10/30 03:17:56;;;;;;;19.40;12.30;;;;;;;;;;763349;183;918671;-65
2021/10/30 03:20:22;;;;;;;20.30;13.30;;;;;;;;;;768693;183;919474;-65
2021/10/30 03:22:47;;;;;;;23.83;13.83;;;;;;;;;;763109;183;918348;-63
2021/10/30 03:25:13;;;;;;;22.93;14.53;;;;;;;;;;759578;183;919204;-63
2021/10/30 03:27:39;;;;;;;22.90;15.23;;;;;;;;;;764822;181;919374;-65
2021/10/30 03:30:06;;;;;;;22.70;14.63;;;;;;;;;;770300;182;919114;-65
2021/10/30 03:32:31;;;;;;;22.10;14.07;;;;;;;;;;764519;182;918213;-65
2021/10/30 03:34:57;;;;;;;22.37;14.37;;;;;;;;;;764716;183;919078;-66
2021/10/30 03:37:25;;;;;;;24.67;14.93;;;;;;;;;;768953;183;919903;-65
2021/10/30 03:39:49;;;;;;;20.77;15.20;;;;;;;;;;767510;183;918429;-64
2021/10/30 03:42:16;;;;;;;31.17;18.20;;;;;;;;;;763811;183;915811;-65
2021/10/30 03:44:41;;;;;;;24.17;14.67;;;;;;;;;;769450;183;913644;-64
2021/10/30 03:47:07;;;;;;;21.10;14.90;;;;;;;;;;764807;183;916836;-65
2021/10/30 03:49:32;;;;;;;20.17;14.10;;;;;;;;;;763770;183;918987;-65
2021/10/30 03:51:58;;;;;;;24.40;15.17;;;;;;;;;;764344;182;918732;-65
2021/10/30 03:54:24;;;;;;;19.70;14.00;;;;;;;;;;772559;180;917479;-63
2021/10/30 03:56:50;;;;;;;24.10;14.45;;;;;;;;;;765367;183;938660;-64
2021/10/30 03:59:16;;;;;;;26.03;15.00;;;;;;;;;;765897;183;919585;-64
2021/10/30 04:01:42;;;;;;;22.97;15.40;;;;;;;;;;770961;183;918530;-65
2021/10/30 04:04:07;;;;;;;22.67;14.67;;;;;;;;;;765977;183;918587;-65
2021/10/30 04:06:33;;;;;;;21.63;14.20;;;;;;;;;;762999;183;918829;-64
2021/10/30 04:08:59;;;;;;;20.25;13.27;;;;;;;;;;769126;183;919352;-64
2021/10/30 04:11:25;;;;;;;20.40;13.43;;;;;;;;;;767039;182;917546;-64
2021/10/30 04:13:51;;;;;;;23.97;13.90;;;;;;;;;;766947;183;633726;-65
2021/10/30 04:16:17;;;;;;;20.87;13.07;;;;;;;;;;771190;183;919712;-65
2021/10/30 04:18:44;;;;;;;20.37;13.10;;;;;;;;;;761869;183;920350;-64
2021/10/30 04:21:09;;;;;;;22.40;14.07;;;;;;;;;;762523;183;915477;-65
2021/10/30 04:23:34;;;;;;;21.50;14.27;;;;;;;;;;764418;183;915283;-65
2021/10/30 04:26:00;;;;;;;18.63;13.37;;;;;;;;;;766737;183;915674;-64
2021/10/30 04:28:26;;;;;;;18.70;12.50;;;;;;;;;;762192;183;920665;-65
2021/10/30 04:30:52;;;;;;;19.80;12.07;;;;;;;;;;764280;183;918991;-64
2021/10/30 04:33:18;;;;;;;20.53;13.33;;;;;;;;;;766398;183;919031;-63
2021/10/30 04:35:44;;;;;;;23.97;13.73;;;;;;;;;;766835;183;917783;-65
2021/10/30 04:38:10;;;;;;;20.27;12.30;;;;;;;;;;764220;183;917989;-65
2021/10/30 04:40:35;;;;;;;21.50;13.23;;;;;;;;;;773742;181;919377;-65
2021/10/30 04:43:01;;;;;;;21.97;12.00;;;;;;;;;;768821;182;917888;-65
2021/10/30 04:45:27;;;;;;;22.20;12.17;;;;;;;;;;762859;183;921917;-65
2021/10/30 04:47:53;;;;;;;19.42;11.07;;;;;;;;;;767389;183;918743;-64
2021/10/30 04:50:19;;;;;;;17.73;12.30;;;;;;;;;;771687;180;891514;-64
2021/10/30 04:52:45;;;;;;;23.42;12.15;;;;;;;;;;765747;183;918550;-65
2021/10/30 04:55:10;;;;;;;22.90;13.37;;;;;;;;;;762708;183;919562;-65
2021/10/30 04:57:36;;;;;;;20.80;12.73;;;;;;;;;;769542;183;918882;-68
2021/10/30 05:00:02;;;;;;;24.77;14.27;;;;;;;;;;760972;183;919711;-65
2021/10/30 05:02:28;;;;;;;20.07;13.30;;;;;;;;;;763430;183;917831;-65
2021/10/30 05:04:54;;;;;;;20.10;13.20;;;;;;;;;;773136;183;897699;-66
2021/10/30 05:07:20;;;;;;;25.20;12.40;;;;;;;;;;763270;183;918155;-67
2021/10/30 05:09:46;;;;;;;20.13;12.50;;;;;;;;;;762161;183;916006;-65
2021/10/30 05:12:12;;;;;;;20.27;12.27;;;;;;;;;;765884;183;915363;-64
2021/10/30 05:14:38;;;;;;;18.37;11.63;;;;;;;;;;763140;183;915502;-65
2021/10/30 05:17:04;;;;;;;17.87;11.13;;;;;;;;;;765160;183;920271;-66
2021/10/30 05:19:29;;;;;;;18.90;13.07;;;;;;;;;;764026;183;921647;-65
2021/10/30 05:21:55;;;;;;;23.00;13.07;;;;;;;;;;767755;183;919055;-66
2021/10/30 05:24:21;;;;;;;21.23;12.13;;;;;;;;;;764469;183;919459;-65
2021/10/30 05:26:47;;;;;;;18.33;11.73;;;;;;;;;;764308;183;918799;-65
2021/10/30 05:29:13;;;;;;;17.97;10.87;;;;;;;;;;767928;183;919214;-64
2021/10/30 05:31:39;;;;;;;14.60;10.37;;;;;;;;;;764060;183;919722;-67
2021/10/30 05:34:05;;;;;;;19.57;12.00;;;;;;;;;;765375;183;919363;-65
2021/10/30 05:36:33;;;;;;;16.70;10.50;;;;;;;;;;769188;183;918954;-69
2021/10/30 05:38:56;;;;;;;15.93;10.18;;;;;;;;;;763462;183;919836;-65
2021/10/30 05:41:23;;;;;;;16.40;11.90;;;;;;;;;;763267;183;1020654;-65
2021/10/30 05:43:49;;;;;;;16.37;11.10;;;;;;;;;;763394;183;1017216;-67
2021/10/30 05:46:15;;;;;;;25.47;13.43;;;;;;;;;;768421;183;918896;-64
2021/10/30 05:48:42;;;;;;;16.87;10.47;;;;;;;;;;762196;183;919107;-64
2021/10/30 05:51:08;;;;;;;17.17;11.27;;;;;;;;;;764280;181;919601;-64
2021/10/30 05:53:33;;;;;;;23.93;12.43;;;;;;;;;;771484;182;919884;-63
2021/10/30 05:55:59;;;;;;;19.80;12.00;;;;;;;;;;767705;182;919695;-63
2021/10/30 05:58:25;;;;;;;17.97;11.43;;;;;;;;;;767411;183;919027;-64
2021/10/30 06:00:51;;;;;;;19.10;11.00;;;;;;;;;;769298;183;918151;-65
2021/10/30 06:03:17;;;;;;;21.50;12.47;;;;;;;;;;765760;183;922252;-64
2021/10/30 06:05:43;;;;;;;19.93;12.70;;;;;;;;;;764818;183;918646;-65
2021/10/30 06:08:09;;;;;;;35.87;21.97;;;;;;;;;;769618;183;625446;-65
2021/10/30 06:10:35;;;;;;;37.80;22.23;;;;;;;;;;771831;183;622095;-65
2021/10/30 06:13:00;;;;;;;19.70;13.03;;;;;;;;;;769214;183;637076;-65
2021/10/30 06:15:26;;;;;;;23.53;14.60;;;;;;;;;;768220;183;634871;-65
2021/10/30 06:17:52;;;;;;;25.03;15.30;;;;;;;;;;772843;183;628381;-65
2021/10/30 06:20:18;;;;;;;26.37;16.53;;;;;;;;;;766436;183;878922;-65
2021/10/30 06:22:44;;;;;;;26.52;15.48;;;;;;;;;;767890;183;918865;-65
2021/10/30 06:25:09;;;;;;;23.10;14.57;;;;;;;;;;770981;183;918289;-65
2021/10/30 06:27:35;;;;;;;25.93;17.87;;;;;;;;;;766019;183;920031;-65
2021/10/30 06:30:01;;;;;;;23.67;16.43;;;;;;;;;;765565;183;944152;-66
2021/10/30 06:32:27;;;;;;;19.50;14.20;;;;;;;;;;764890;183;918237;-64
2021/10/30 06:34:53;;;;;;;21.90;13.57;;;;;;;;;;768550;180;917879;-64
2021/10/30 06:37:19;;;;;;;25.40;15.67;;;;;;;;;;764188;183;920376;-64
2021/10/30 06:39:44;;;;;;;25.73;13.33;;;;;;;;;;762852;183;919175;-66
2021/10/30 06:42:10;;;;;;;26.57;15.33;;;;;;;;;;768307;183;999801;-64
2021/10/30 06:44:36;;;;;;;33.77;16.70;;;;;;;;;;765382;183;919378;-64
2021/10/30 06:47:02;;;;;;;28.98;18.50;;;;;;;;;;763751;183;918639;-64
2021/10/30 06:49:28;;;;;;;26.07;16.73;;;;;;;;;;768939;183;919084;-65
2021/10/30 06:51:54;;;;;;;21.30;13.77;;;;;;;;;;764127;183;918713;-65
2021/10/30 06:54:20;;;;;;;20.20;13.50;;;;;;;;;;763790;183;918797;-66
2021/10/30 06:56:48;;;;;;;23.45;13.62;;;;;;;;;;770918;183;919344;-63
2021/10/30 06:59:12;;;;;;;22.43;12.33;;;;;;;;;;768414;180;918859;-64
2021/10/30 07:01:40;;;;;;;22.67;12.80;;;;;;;;;;763318;183;921105;-66
2021/10/30 07:04:04;;;;;;;17.15;12.32;;;;;;;;;;766610;181;922343;-66
2021/10/30 07:06:30;;;;;;;19.73;11.60;;;;;;;;;;769872;182;918958;-64
2021/10/30 07:08:56;;;;;;;17.80;11.60;;;;;;;;;;766897;182;919469;-65
2021/10/30 07:11:22;;;;;;;19.80;11.80;;;;;;;;;;763810;183;919108;-65
2021/10/30 07:13:48;;;;;;;16.67;10.63;;;;;;;;;;768985;182;923246;-65
2021/10/30 07:16:16;;;;;;;18.07;10.73;;;;;;;;;;764512;183;918848;-66
2021/10/30 07:18:41;;;;;;;16.30;10.85;;;;;;;;;;766092;183;920023;-66
2021/10/30 07:21:07;;;;;;;14.07;10.60;;;;;;;;;;764921;183;919689;-64
2021/10/30 07:23:32;;;;;;;15.30;10.20;;;;;;;;;;760152;183;923362;-66
2021/10/30 07:25:58;;;;;;;14.67;10.27;;;;;;;;;;759774;183;918814;-66
2021/10/30 07:28:24;;;;;;;15.00;11.13;;;;;;;;;;763589;183;919219;-67
2021/10/30 07:30:50;;;;;;;16.90;10.57;;;;;;;;;;768496;183;915473;-65
2021/10/30 07:33:16;;;;;;;16.13;10.23;;;;;;;;;;766361;183;917588;-66
2021/10/30 07:35:42;;;;;;;15.70;10.63;;;;;;;;;;766439;183;953759;-66
2021/10/30 07:38:07;;;;;;;19.10;10.57;;;;;;;;;;768574;183;918156;-66
2021/10/30 07:40:33;;;;;;;19.62;12.88;;;;;;;;;;765916;183;919194;-66
2021/10/30 07:42:59;;;;;;;14.97;10.90;;;;;;;;;;762660;183;933098;-66
2021/10/30 07:45:25;;;;;;;15.27;10.50;;;;;;;;;;770810;183;918657;-66
2021/10/30 07:47:51;;;;;;;14.37;9.17;;;;;;;;;;764403;183;919797;-67
2021/10/30 07:50:17;;;;;;;44.87;11.63;;;;;;;;;;764993;183;919402;-66
2021/10/30 07:52:43;;;;;;;17.93;11.50;;;;;;;;;;769442;183;630770;-68
2021/10/30 07:55:09;;;;;;;19.03;10.60;;;;;;;;;;769666;183;918631;-67
2021/10/30 07:57:34;;;;;;;13.13;10.10;;;;;;;;;;764432;183;918764;-67
2021/10/30 08:00:00;;;;;;;22.80;11.53;;;;;;;;;;765149;183;919413;-68
2021/10/30 08:02:26;;;;;;;16.37;10.30;;;;;;;;;;769065;183;918174;-67
2021/10/30 08:04:52;;;;;;;17.98;11.27;;;;;;;;;;763966;183;925071;-69
2021/10/30 08:07:18;;;;;;;22.13;11.10;;;;;;;;;;763615;182;919071;-68
2021/10/30 08:09:44;;;;;;;28.43;10.80;;;;;;;;;;768864;183;918897;-68
2021/10/30 08:12:09;;;;;;;19.93;10.63;;;;;;;;;;762996;183;920141;-68
2021/10/30 08:14:35;;;;;;;13.03;10.27;;;;;;;;;;767242;182;918817;-68
2021/10/30 08:17:01;;;;;;;21.87;12.20;;;;;;;;;;765468;182;919389;-68
2021/10/30 08:19:27;;;;;;;17.60;10.97;;;;;;;;;;769602;180;918973;-69
2021/10/30 08:21:53;;;;;;;18.97;10.43;;;;;;;;;;765931;183;919347;-68
2021/10/30 08:24:19;;;;;;;18.50;9.90;;;;;;;;;;761008;183;920732;-69
2021/10/30 08:26:45;;;;;;;16.47;11.63;;;;;;;;;;770233;183;816249;-69
2021/10/30 08:29:11;;;;;;;14.85;10.35;;;;;;;;;;760729;183;919031;-68
2021/10/30 08:31:36;;;;;;;15.10;10.77;;;;;;;;;;764224;183;919150;-70
2021/10/30 08:34:02;;;;;;;13.53;10.63;;;;;;;;;;768977;183;918761;-71
2021/10/30 08:36:28;;;;;;;18.23;10.80;;;;;;;;;;765113;183;916531;-69
2021/10/30 08:38:54;;;;;;;14.23;10.30;;;;;;;;;;765588;183;915762;-70
2021/10/30 08:41:20;;;;;;;17.77;11.70;;;;;;;;;;766540;183;915066;-69
2021/10/30 08:43:45;;;;;;;14.30;11.03;;;;;;;;;;758732;183;915888;-70
2021/10/30 08:46:11;;;;;;;17.60;11.67;;;;;;;;;;763864;183;921178;-69
2021/10/30 08:48:37;;;;;;;15.53;10.63;;;;;;;;;;760288;183;919235;-71
2021/10/30 08:51:03;;;;;;;15.80;11.23;;;;;;;;;;770140;183;919622;-70
2021/10/30 08:53:29;;;;;;;15.50;11.60;;;;;;;;;;766913;183;919172;-67
2021/10/30 08:55:57;;;;;;;14.80;10.83;;;;;;;;;;767810;183;629548;-69
2021/10/30 08:58:21;;;;;;;15.27;10.20;;;;;;;;;;771421;183;621455;-68
2021/10/30 09:00:48;;;;;;;15.20;11.10;;;;;;;;;;770323;183;638382;-69
2021/10/30 09:03:13;;;;;;;16.23;9.90;;;;;;;;;;766653;183;1085682;-70
2021/10/30 09:05:39;;;;;;;19.00;10.77;;;;;;;;;;771765;183;791400;-70
2021/10/30 09:08:05;;;;;;;15.10;10.20;;;;;;;;;;766608;183;633137;-70
2021/10/30 09:10:34;;;;;;;14.37;10.80;;;;;;;;;;768021;183;660669;-70
2021/10/30 09:12:58;;;;;;;16.00;11.47;;;;;;;;;;770282;183;619622;-70
2021/10/30 09:15:31;;;;;;;14.80;10.30;;;;;;;;;;769206;183;814275;-70
2021/10/30 09:17:57;;;;;;;15.43;10.10;;;;;;;;;;766058;183;918130;-69
2021/10/30 09:20:31;;;;;;;18.40;10.77;;;;;;;;;;770315;183;624618;-70
2021/10/30 09:22:57;;;;;;;19.80;10.57;;;;;;;;;;767509;183;632571;-71
2021/10/30 09:25:23;;;;;;;17.77;10.20;;;;;;;;;;773597;181;618602;-72
2021/10/30 09:27:53;;;;;;;12.80;9.60;;;;;;;;;;771442;182;622652;-72
2021/10/30 09:30:18;;;;;;;19.40;9.83;;;;;;;;;;769110;182;642182;-69
2021/10/30 09:32:52;;;;;;;13.23;8.90;;;;;;;;;;767134;183;918849;-71
2021/10/30 09:35:21;;;;;;;14.03;9.90;;;;;;;;;;765669;183;917350;-69
2021/10/30 09:37:47;;;;;;;16.53;9.40;;;;;;;;;;765092;183;624242;-70
2021/10/30 09:40:16;;;;;;;40.83;10.50;;;;;;;;;;771764;183;625919;-70
2021/10/30 09:42:42;;;;;;;16.40;11.20;;;;;;;;;;764901;182;624873;-70
2021/10/30 09:45:08;;;;;;;12.10;9.13;;;;;;;;;;773990;183;626495;-71
2021/10/30 09:47:34;;;;;;;15.67;10.03;;;;;;;;;;767000;183;639857;-71
2021/10/30 09:49:59;;;;;;;12.03;9.23;;;;;;;;;;766548;183;622423;-70
2021/10/30 09:52:25;;;;;;;13.47;9.83;;;;;;;;;;771521;183;622864;-71
2021/10/30 09:54:51;;;;;;;13.10;9.03;;;;;;;;;;772003;183;626496;-71
2021/10/30 09:57:27;;;;;;;14.43;10.90;;;;;;;;;;768381;183;626955;-68
2021/10/30 09:59:52;;;;;;;13.07;10.20;;;;;;;;;;772441;183;618557;-71
2021/10/30 10:02:18;;;;;;;13.53;8.40;;;;;;;;;;773181;183;613974;-71
2021/10/30 10:04:44;;;;;;;11.97;8.83;;;;;;;;;;767932;183;637110;-71
2021/10/30 10:07:09;;;;;;;13.77;9.10;;;;;;;;;;767383;183;630220;-71
2021/10/30 10:09:35;;;;;;;13.90;7.50;;;;;;;;;;769655;183;620693;-70
2021/10/30 10:12:01;;;;;;;17.23;7.90;;;;;;;;;;767514;183;638176;-71
2021/10/30 10:14:27;;;;;;;13.80;9.43;;;;;;;;;;767600;183;623127;-73
2021/10/30 10:16:53;;;;;;;17.50;9.73;;;;;;;;;;767242;181;881638;-74
2021/10/30 10:19:19;;;;;;;10.80;7.93;;;;;;;;;;759609;183;914641;-72
2021/10/30 10:21:44;;;;;;;19.23;9.67;;;;;;;;;;761093;183;919915;-73
2021/10/30 10:24:12;;;;;;;11.43;8.60;;;;;;;;;;766998;183;638171;-72
2021/10/30 10:26:44;;;;;;;12.73;8.83;;;;;;;;;;771852;183;628747;-73
2021/10/30 10:29:09;;;;;;;12.53;9.70;;;;;;;;;;764762;183;916295;-72
2021/10/30 10:31:35;;;;;;;17.20;8.90;;;;;;;;;;767469;183;625133;-73
2021/10/30 10:34:17;;;;;;;14.23;7.80;;;;;;;;;;764962;183;915849;-73
2021/10/30 10:36:42;;;;;;;11.95;8.40;;;;;;;;;;771135;181;650952;-72
2021/10/30 10:39:08;;;;;;;11.80;9.03;;;;;;;;;;767451;182;624438;-72
2021/10/30 10:41:52;;;;;;;17.43;7.70;;;;;;;;;;767876;182;625270;-73
2021/10/30 10:44:37;;;;;;;11.93;8.17;;;;;;;;;;769124;183;643067;-73
2021/10/30 10:47:03;;;;;;;13.07;8.37;;;;;;;;;;769598;182;630351;-72
2021/10/30 10:49:42;;;;;;;13.73;8.07;;;;;;;;;;769991;182;619268;-74
2021/10/30 10:52:14;;;;;;;13.47;7.60;;;;;;;;;;770449;182;636199;-72
2021/10/30 10:54:40;;;;;;;13.90;8.77;;;;;;;;;;770954;183;614923;-72
2021/10/30 10:57:06;;;;;;;13.23;9.30;;;;;;;;;;768092;182;628950;-72
2021/10/30 10:59:39;;;;;;;13.17;8.77;;;;;;;;;;762697;183;633544;-72
2021/10/30 11:02:11;;;;;;;10.50;7.13;;;;;;;;;;766561;183;914883;-72
2021/10/30 11:04:37;;;;;;;16.17;8.87;;;;;;;;;;774818;183;667568;-72
2021/10/30 11:07:08;;;;;;;13.13;7.50;;;;;;;;;;765831;183;626615;-72
2021/10/30 11:09:34;;;;;;;12.03;7.90;;;;;;;;;;768440;183;634503;-75
2021/10/30 11:12:00;;;;;;;11.10;8.13;;;;;;;;;;768558;183;634037;-73
2021/10/30 11:14:26;;;;;;;13.73;8.50;;;;;;;;;;774225;183;625507;-72
2021/10/30 11:16:53;;;;;;;16.60;8.30;;;;;;;;;;768475;183;629392;-71
2021/10/30 11:19:21;;;;;;;10.40;8.10;;;;;;;;;;767684;183;617055;-73
2021/10/30 11:21:45;;;;;;;13.67;7.87;;;;;;;;;;771430;183;608521;-73
2021/10/30 11:24:16;;;;;;;10.73;8.20;;;;;;;;;;760925;183;2170635;-72
2021/10/30 11:26:38;;;;;;;18.23;9.07;;;;;;;;;;768564;183;697673;-72
2021/10/30 11:29:03;;;;;;;11.67;8.40;;;;;;;;;;763333;183;919536;-73
2021/10/30 11:31:30;;;;;;;12.63;8.27;;;;;;;;;;768530;183;616658;-72
2021/10/30 11:33:59;;;;;;;17.10;9.30;;;;;;;;;;768523;183;633496;-73
2021/10/30 11:36:25;;;;;;;11.90;8.60;;;;;;;;;;768844;183;631944;-72
2021/10/30 11:38:51;;;;;;;21.53;8.67;;;;;;;;;;771503;183;619030;-73
2021/10/30 11:41:16;;;;;;;11.17;8.00;;;;;;;;;;768558;183;636985;-73
2021/10/30 11:43:42;;;;;;;22.37;8.73;;;;;;;;;;768185;183;655996;-73
2021/10/30 11:46:08;;;;;;;9.00;7.90;;;;;;;;;;767241;183;919305;-74
2021/10/30 11:48:50;;;;;;;9.97;7.50;;;;;;;;;;770517;181;629017;-74
2021/10/30 11:51:16;;;;;;;12.60;9.37;;;;;;;;;;776833;182;619541;-74
2021/10/30 11:53:42;;;;;;;14.00;8.83;;;;;;;;;;771137;183;638380;-71
2021/10/30 11:56:09;;;;;;;10.97;8.13;;;;;;;;;;768081;183;644792;-73
2021/10/30 11:58:36;;;;;;;15.10;8.80;;;;;;;;;;771921;183;620380;-72
2021/10/30 12:01:01;;;;;;;12.10;8.60;;;;;;;;;;766140;183;781323;-71
2021/10/30 12:03:31;;;;;;;13.07;8.70;;;;;;;;;;767528;183;718599;-72
2021/10/30 12:05:57;;;;;;;10.57;8.40;;;;;;;;;;764179;183;919416;-71
2021/10/30 12:08:23;;;;;;;11.40;8.30;;;;;;;;;;765229;180;918792;-72
2021/10/30 12:10:49;;;;;;;11.60;8.17;;;;;;;;;;765975;183;919372;-72
2021/10/30 12:13:16;;;;;;;13.90;10.13;;;;;;;;;;763517;183;918719;-72
2021/10/30 12:15:41;;;;;;;13.67;9.40;;;;;;;;;;772669;183;918580;-71
2021/10/30 12:18:07;;;;;;;12.93;9.00;;;;;;;;;;766132;183;918728;-72
2021/10/30 12:20:32;;;;;;;10.25;8.07;;;;;;;;;;767648;183;1022023;-72
2021/10/30 12:22:59;;;;;;;15.07;9.17;;;;;;;;;;771433;183;918671;-71
2021/10/30 12:25:24;;;;;;;10.77;8.93;;;;;;;;;;764902;183;917659;-71
2021/10/30 12:27:55;;;;;;;12.97;9.60;;;;;;;;;;764507;183;920165;-74
2021/10/30 12:30:19;;;;;;;13.93;9.27;;;;;;;;;;764496;183;918980;-72
2021/10/30 12:32:45;;;;;;;15.50;8.23;;;;;;;;;;771729;183;919250;-72
2021/10/30 12:35:14;;;;;;;13.73;9.50;;;;;;;;;;766153;183;918227;-72
2021/10/30 12:37:40;;;;;;;13.17;8.90;;;;;;;;;;756626;183;2147543;-71
2021/10/30 12:40:06;;;;;;;12.53;8.70;;;;;;;;;;767033;183;1017737;-71
2021/10/30 12:42:32;;;;;;;16.60;8.80;;;;;;;;;;763856;183;918992;-71
2021/10/30 12:44:58;;;;;;;9.82;7.85;;;;;;;;;;763863;183;920487;-72
2021/10/30 12:47:27;;;;;;;10.60;8.57;;;;;;;;;;768930;183;1021279;-71
2021/10/30 12:49:54;;;;;;;9.97;8.10;;;;;;;;;;770981;181;920745;-72
2021/10/30 12:52:19;;;;;;;16.93;9.87;;;;;;;;;;764392;183;918654;-74
2021/10/30 12:54:51;;;;;;;10.63;8.60;;;;;;;;;;763416;183;921977;-74
2021/10/30 12:57:20;;;;;;;15.27;8.67;;;;;;;;;;770126;183;1038727;-70
2021/10/30 12:59:45;;;;;;;17.27;8.30;;;;;;;;;;770723;182;919352;-73
2021/10/30 13:02:11;;;;;;;14.40;9.33;;;;;;;;;;766592;182;979122;-75
2021/10/30 13:04:40;;;;;;;12.60;9.13;;;;;;;;;;763371;182;918678;-72
2021/10/30 13:07:03;;;;;;;11.23;8.03;;;;;;;;;;768963;183;918358;-72
2021/10/30 13:09:29;;;;;;;13.10;8.50;;;;;;;;;;763252;183;919743;-72
2021/10/30 13:11:55;;;;;;;14.30;7.70;;;;;;;;;;766128;183;919602;-72
2021/10/30 13:14:21;;;;;;;13.80;8.93;;;;;;;;;;771723;183;920549;-72
2021/10/30 13:16:47;;;;;;;18.53;8.97;;;;;;;;;;764909;183;638386;-71
2021/10/30 13:19:12;;;;;;;15.20;8.27;;;;;;;;;;768519;183;616865;-71
2021/10/30 13:21:39;;;;;;;17.57;9.83;;;;;;;;;;769733;183;621779;-72
2021/10/30 13:24:05;;;;;;;17.47;9.40;;;;;;;;;;769248;183;918362;-71
2021/10/30 13:26:30;;;;;;;14.83;7.60;;;;;;;;;;763736;183;918312;-72
2021/10/30 13:28:56;;;;;;;12.80;8.90;;;;;;;;;;764932;183;914900;-71
2021/10/30 13:31:22;;;;;;;15.63;8.83;;;;;;;;;;771790;183;915749;-71
2021/10/30 13:33:48;;;;;;;13.97;8.90;;;;;;;;;;757514;183;912709;-70
2021/10/30 13:36:14;;;;;;;12.52;8.40;;;;;;;;;;758811;183;915729;-71
2021/10/30 13:38:40;;;;;;;15.77;9.90;;;;;;;;;;770054;183;920828;-70
2021/10/30 13:41:06;;;;;;;16.67;10.03;;;;;;;;;;764446;183;914975;-72
2021/10/30 13:43:32;;;;;;;15.93;9.43;;;;;;;;;;765212;183;994790;-72
2021/10/30 13:45:58;;;;;;;10.57;8.40;;;;;;;;;;769586;183;919242;-71
2021/10/30 13:48:24;;;;;;;18.83;9.40;;;;;;;;;;765046;183;914210;-72
2021/10/30 13:50:50;;;;;;;12.17;8.57;;;;;;;;;;762404;183;921534;-71
2021/10/30 13:53:16;;;;;;;12.07;7.77;;;;;;;;;;762789;183;928942;-71
2021/10/30 13:55:41;;;;;;;12.40;7.70;;;;;;;;;;768188;183;916512;-71
2021/10/30 13:58:07;;;;;;;20.87;9.30;;;;;;;;;;763463;183;915754;-71
2021/10/30 14:00:33;;;;;;;15.67;7.97;;;;;;;;;;765277;183;918742;-70
2021/10/30 14:02:59;;;;;;;9.90;7.67;;;;;;;;;;768329;183;918417;-72